createdAt,value
2023-02-04T00:00:02.102Z,1014.61
2023-02-04T00:05:02.121Z,1014.8
2023-02-04T00:10:02.016Z,1014.8
2023-02-04T00:15:01.973Z,1014.96
2023-02-04T00:20:02.008Z,1015.05
2023-02-04T00:25:01.427Z,1015.04
2023-02-04T00:30:01.600Z,1015.13
2023-02-04T00:35:01.843Z,1015.19
2023-02-04T00:40:01.846Z,1015.16
2023-02-04T00:45:01.873Z,1015.22
2023-02-04T00:50:02.017Z,1015.28
2023-02-04T00:55:02.083Z,1015.39
2023-02-04T01:00:01.480Z,1015.42
2023-02-04T01:05:02.029Z,1015.41
2023-02-04T01:10:01.690Z,1015.49
2023-02-04T01:15:02.095Z,1015.5
2023-02-04T01:20:01.534Z,1015.53
2023-02-04T01:25:01.893Z,1015.59
2023-02-04T01:30:01.992Z,1015.59
2023-02-04T01:35:02.098Z,1015.71
2023-02-04T01:40:01.869Z,1015.7
2023-02-04T01:45:01.489Z,1015.71
2023-02-04T01:50:01.899Z,1015.77
2023-02-04T01:55:02.018Z,1015.8
2023-02-04T02:00:01.354Z,1015.81
2023-02-04T02:05:02.164Z,1015.91
2023-02-04T02:10:01.522Z,1015.95
2023-02-04T02:15:01.963Z,1016.05
2023-02-04T02:20:02.253Z,1016.06
2023-02-04T02:25:01.593Z,1016.07
2023-02-04T02:30:01.944Z,1016.06
2023-02-04T02:35:02.015Z,1016.13
2023-02-04T02:40:02.001Z,1016.14
2023-02-04T02:45:02.146Z,1016.23
2023-02-04T02:50:01.936Z,1016.23
2023-02-04T02:55:02.167Z,1016.27
2023-02-04T03:00:02.106Z,1016.34
2023-02-04T03:05:01.485Z,1016.38
2023-02-04T03:10:01.759Z,1016.37
2023-02-04T03:15:01.748Z,1016.37
2023-02-04T03:20:02.119Z,1016.48
2023-02-04T03:25:02.101Z,1016.54
2023-02-04T03:30:02.247Z,1016.58
2023-02-04T03:35:02.165Z,1016.55
2023-02-04T03:40:01.925Z,1016.59
2023-02-04T03:45:02.036Z,1016.68
2023-02-04T03:50:02.069Z,1016.66
2023-02-04T03:55:02.186Z,1016.68
2023-02-04T04:00:02.240Z,1016.68
2023-02-04T04:05:01.311Z,1016.79
2023-02-04T04:10:01.852Z,1016.89
2023-02-04T04:15:02.068Z,1016.82
2023-02-04T04:20:01.564Z,1016.99
2023-02-04T04:25:02.061Z,1016.94
2023-02-04T04:30:01.423Z,1016.93
2023-02-04T04:35:01.744Z,1016.98
2023-02-04T04:40:01.576Z,1017.01
2023-02-04T04:45:01.579Z,1017
2023-02-04T04:50:01.577Z,1017.02
2023-02-04T04:55:01.652Z,1017.06
2023-02-04T05:00:02.068Z,1017.11
2023-02-04T05:05:02.326Z,1017.21
2023-02-04T05:10:01.483Z,1017.19
2023-02-04T05:15:01.370Z,1017.31
2023-02-04T05:20:01.470Z,1017.32
2023-02-04T05:25:01.569Z,1017.35
2023-02-04T05:30:01.264Z,1017.36
2023-02-04T05:35:01.675Z,1017.36
2023-02-04T05:40:01.868Z,1017.36
2023-02-04T05:45:02.129Z,1017.5
2023-02-04T05:50:02.232Z,1017.53
2023-02-04T05:55:02.245Z,1017.55
2023-02-04T06:00:01.463Z,1017.66
2023-02-04T06:05:01.646Z,1017.77
2023-02-04T06:10:02.083Z,1017.77
2023-02-04T06:15:02.049Z,1017.8
2023-02-04T06:20:01.560Z,1017.82
2023-02-04T06:25:01.592Z,1017.88
2023-02-04T06:30:01.488Z,1017.96
2023-02-04T06:35:01.668Z,1018.03
2023-02-04T06:40:02.101Z,1018.02
2023-02-04T06:45:02.240Z,1018.07
2023-02-04T06:50:02.028Z,1018.1
2023-02-04T06:55:01.948Z,1018.04
2023-02-04T07:00:02.126Z,1018.07
2023-02-04T07:05:02.039Z,1018.1
2023-02-04T07:10:01.310Z,1018.15
2023-02-04T07:15:01.490Z,1018.28
2023-02-04T07:20:01.990Z,1018.25
2023-02-04T07:25:02.211Z,1018.35
2023-02-04T07:30:01.393Z,1018.35
2023-02-04T07:35:01.477Z,1018.43
2023-02-04T07:40:01.456Z,1018.48
2023-02-04T07:45:01.724Z,1018.47
2023-02-04T07:50:01.652Z,1018.6
2023-02-04T07:55:01.586Z,1018.64
2023-02-04T08:00:01.632Z,1018.79
2023-02-04T08:05:02.020Z,1018.86
2023-02-04T08:10:01.273Z,1018.86
2023-02-04T08:15:01.484Z,1018.92
2023-02-04T08:20:01.565Z,1018.93
2023-02-04T08:25:01.998Z,1018.97
2023-02-04T08:30:02.149Z,1018.95
2023-02-04T08:35:01.325Z,1018.95
2023-02-04T08:40:01.389Z,1019.05
2023-02-04T08:45:01.472Z,1019.14
2023-02-04T08:50:01.439Z,1019.19
2023-02-04T08:55:01.573Z,1019.13
2023-02-04T09:00:01.901Z,1019.18
2023-02-04T09:05:02.084Z,1019.29
2023-02-04T09:10:01.776Z,1019.45
2023-02-04T09:15:02.059Z,1019.46
2023-02-04T09:20:01.577Z,1019.46
2023-02-04T09:25:01.483Z,1019.5
2023-02-04T09:30:01.475Z,1019.55
2023-02-04T09:35:01.434Z,1019.62
2023-02-04T09:40:01.768Z,1019.62
2023-02-04T09:45:01.933Z,1019.62
2023-02-04T09:50:01.453Z,1019.72
2023-02-04T09:55:01.594Z,1019.79
2023-02-04T10:00:01.782Z,1019.92
2023-02-04T10:05:02.070Z,1019.87
2023-02-04T10:10:01.409Z,1019.93
2023-02-04T10:15:01.420Z,1019.95
2023-02-04T10:20:01.670Z,1020
2023-02-04T10:25:01.840Z,1020.01
2023-02-04T10:30:02.244Z,1020.02
2023-02-04T10:35:02.215Z,1020
2023-02-04T10:40:02.231Z,1019.98
2023-02-04T10:45:02.209Z,1019.99
2023-02-04T10:50:01.295Z,1019.96
2023-02-04T10:55:01.271Z,1020.01
2023-02-04T11:00:01.460Z,1019.97
2023-02-04T11:05:01.575Z,1019.93
2023-02-04T11:10:01.907Z,1019.97
2023-02-04T11:15:01.976Z,1019.96
2023-02-04T11:20:01.934Z,1019.96
2023-02-04T11:25:02.105Z,1019.99
2023-02-04T11:30:01.333Z,1019.99
2023-02-04T11:35:01.834Z,1019.98
2023-02-04T11:40:01.653Z,1020
2023-02-04T11:45:01.564Z,1019.98
2023-02-04T11:50:01.934Z,1020.03
2023-02-04T11:55:01.580Z,1019.98
2023-02-04T12:00:01.609Z,1019.97
2023-02-04T12:05:01.576Z,1019.95
2023-02-04T12:10:02.056Z,1019.98
2023-02-04T12:15:02.074Z,1020.05
2023-02-04T12:20:02.150Z,1020.1
2023-02-04T12:25:02.136Z,1020.07
2023-02-04T12:30:01.423Z,1020.02
2023-02-04T12:35:02.163Z,1020.01
2023-02-04T12:40:02.135Z,1020.03
2023-02-04T12:45:02.030Z,1020.06
2023-02-04T12:50:01.314Z,1020.04
2023-02-04T12:55:01.806Z,1020.02
2023-02-04T13:00:02.003Z,1020.07
2023-02-04T13:05:01.872Z,1020
2023-02-04T13:10:01.993Z,1019.99
2023-02-04T13:15:01.373Z,1020
2023-02-04T13:20:01.688Z,1020.03
2023-02-04T13:25:04.031Z,1020.04
2023-02-04T13:30:01.972Z,1020.06
2023-02-04T13:35:02.037Z,1020.06
2023-02-04T13:40:01.865Z,1020.01
2023-02-04T13:45:01.908Z,1019.99
2023-02-04T13:50:02.186Z,1019.92
2023-02-04T13:55:01.286Z,1019.86
2023-02-04T14:00:01.756Z,1019.88
2023-02-04T14:05:01.536Z,1019.89
2023-02-04T14:10:02.061Z,1019.82
2023-02-04T14:15:01.554Z,1019.79
2023-02-04T14:20:01.911Z,1019.83
2023-02-04T14:25:01.419Z,1019.98
2023-02-04T14:30:01.600Z,1020.03
2023-02-04T14:35:02.061Z,1019.87
2023-02-04T14:40:02.139Z,1019.83
2023-02-04T14:45:01.380Z,1019.81
2023-02-04T14:50:01.605Z,1019.98
2023-02-04T14:55:01.973Z,1020.02
2023-02-04T15:00:02.303Z,1020.09
2023-02-04T15:05:01.801Z,1020.05
2023-02-04T15:10:02.059Z,1020.12
2023-02-04T15:15:01.402Z,1020.18
2023-02-04T15:20:01.315Z,1020.15
2023-02-04T15:25:01.910Z,1020.15
2023-02-04T15:30:01.839Z,1020.2
2023-02-04T15:35:01.273Z,1020.23
2023-02-04T15:40:01.829Z,1020.26
2023-02-04T15:45:02.235Z,1020.27
2023-02-04T15:50:02.286Z,1020.33
2023-02-04T15:55:01.593Z,1020.33
2023-02-04T16:00:01.687Z,1020.39
2023-02-04T16:05:02.233Z,1020.33
2023-02-04T16:10:01.719Z,1020.41
2023-02-04T16:15:01.368Z,1020.4
2023-02-04T16:20:02.091Z,1020.38
2023-02-04T16:25:01.441Z,1020.41
2023-02-04T16:30:02.252Z,1020.42
2023-02-04T16:35:01.396Z,1020.44
2023-02-04T16:40:01.658Z,1020.49
2023-02-04T16:45:02.170Z,1020.5
2023-02-04T16:50:01.723Z,1020.5
2023-02-04T16:55:02.111Z,1020.51
2023-02-04T17:00:02.316Z,1020.48
2023-02-04T17:05:01.581Z,1020.5
2023-02-04T17:10:02.274Z,1020.68
2023-02-04T17:15:01.399Z,1020.72
2023-02-04T17:20:01.371Z,1020.86
2023-02-04T17:25:01.821Z,1020.86
2023-02-04T17:30:01.470Z,1020.88
2023-02-04T17:35:02.203Z,1020.86
2023-02-04T17:40:01.350Z,1020.93
2023-02-04T17:45:01.885Z,1020.95
2023-02-04T17:50:02.264Z,1020.99
2023-02-04T17:55:01.558Z,1020.94
2023-02-04T18:00:02.061Z,1020.83
2023-02-04T18:05:01.438Z,1020.83
2023-02-04T18:10:02.226Z,1020.86
2023-02-04T18:15:01.370Z,1020.82
2023-02-04T18:20:01.296Z,1020.84
2023-02-04T18:25:01.628Z,1020.9
2023-02-04T18:30:01.374Z,1020.99
2023-02-04T18:35:02.069Z,1020.92
2023-02-04T18:40:02.090Z,1020.91
2023-02-04T18:45:01.292Z,1020.92
2023-02-04T18:50:01.715Z,1020.93
2023-02-04T18:55:02.047Z,1020.89
2023-02-04T19:00:02.139Z,1020.82
2023-02-04T19:05:13.229Z,1020.79
2023-02-04T19:10:01.267Z,1020.76
2023-02-04T19:15:01.848Z,1020.82
2023-02-04T19:20:01.977Z,1020.78
2023-02-04T19:25:02.143Z,1020.82
2023-02-04T19:30:01.287Z,1020.85
2023-02-04T19:35:01.999Z,1020.91
2023-02-04T19:40:02.238Z,1020.88
2023-02-04T19:45:01.279Z,1020.9
2023-02-04T19:50:01.901Z,1020.9
2023-02-04T19:55:02.156Z,1020.89
2023-02-04T20:00:01.319Z,1020.91
2023-02-04T20:05:01.923Z,1020.94
2023-02-04T20:10:01.298Z,1020.97
2023-02-04T20:15:02.134Z,1020.93
2023-02-04T20:20:01.409Z,1020.87
2023-02-04T20:25:01.431Z,1020.97
2023-02-04T20:30:01.978Z,1021.01
2023-02-04T20:35:01.630Z,1021.09
2023-02-04T20:40:02.062Z,1021.06
2023-02-04T20:45:01.332Z,1021.04
2023-02-04T20:50:01.885Z,1021.05
2023-02-04T20:55:02.184Z,1021.04
2023-02-04T21:00:02.270Z,1021.05
2023-02-04T21:05:01.413Z,1021
2023-02-04T21:10:02.165Z,1020.89
2023-02-04T21:15:01.965Z,1020.96
2023-02-04T21:20:01.463Z,1020.92
2023-02-04T21:25:01.939Z,1020.91
2023-02-04T21:30:01.340Z,1020.9
2023-02-04T21:35:02.180Z,1021
2023-02-04T21:40:01.686Z,1021.02
2023-02-04T21:45:02.147Z,1021
2023-02-04T21:50:01.528Z,1021.01
2023-02-04T21:55:02.049Z,1021.02
2023-02-04T22:00:01.418Z,1020.91
2023-02-04T22:05:01.450Z,1020.95
2023-02-04T22:10:01.386Z,1021.06
2023-02-04T22:15:04.147Z,1021.1
2023-02-04T22:20:01.469Z,1021.1
2023-02-04T22:25:01.883Z,1020.99
2023-02-04T22:30:02.153Z,1021
2023-02-04T22:35:01.481Z,1020.92
2023-02-04T22:40:01.924Z,1020.88
2023-02-04T22:45:02.260Z,1020.8
2023-02-04T22:50:01.430Z,1020.78
2023-02-04T22:55:01.908Z,1020.74
2023-02-04T23:00:02.265Z,1020.71
2023-02-04T23:05:01.895Z,1020.74
2023-02-04T23:10:01.434Z,1020.78
2023-02-04T23:15:01.855Z,1020.74
2023-02-04T23:20:02.021Z,1020.66
2023-02-04T23:25:03.047Z,1020.67
2023-02-04T23:30:02.150Z,1020.82
2023-02-04T23:35:01.885Z,1020.9
2023-02-04T23:40:01.292Z,1020.94
2023-02-04T23:45:02.237Z,1020.94
2023-02-04T23:50:01.338Z,1020.96
2023-02-04T23:55:01.943Z,1020.91
